sensor_id;sensor_type;location;lat;lon;timestamp;pressure;altitude;pressure_sealevel;temperature;humidity
43147;BME280;28752;48.266;7.402;2023-03-23T00:01:49;98805.19;;;15.09;51.31
43147;BME280;28752;48.266;7.402;2023-03-23T00:04:18;98801.47;;;15.10;51.17
43147;BME280;28752;48.266;7.402;2023-03-23T00:06:43;98806.31;;;15.22;51.17
43147;BME280;28752;48.266;7.402;2023-03-23T00:09:11;98799.69;;;15.18;51.36
43147;BME280;28752;48.266;7.402;2023-03-23T00:11:37;98787.44;;;15.23;51.55
43147;BME280;28752;48.266;7.402;2023-03-23T00:14:04;98790.41;;;15.14;51.45
43147;BME280;28752;48.266;7.402;2023-03-23T00:16:31;98797.53;;;15.28;50.97
43147;BME280;28752;48.266;7.402;2023-03-23T00:19:00;98787.75;;;15.35;50.96
43147;BME280;28752;48.266;7.402;2023-03-23T00:21:29;98798.06;;;15.38;50.80
43147;BME280;28752;48.266;7.402;2023-03-23T00:26:27;98796.84;;;15.19;51.69
43147;BME280;28752;48.266;7.402;2023-03-23T00:28:54;98781.03;;;15.18;52.43
43147;BME280;28752;48.266;7.402;2023-03-23T00:31:19;98796.97;;;15.33;52.74
43147;BME280;28752;48.266;7.402;2023-03-23T00:33:45;98792.59;;;15.25;52.46
43147;BME280;28752;48.266;7.402;2023-03-23T00:36:12;98790.31;;;15.22;52.69
43147;BME280;28752;48.266;7.402;2023-03-23T00:38:39;98792.84;;;15.08;53.02
43147;BME280;28752;48.266;7.402;2023-03-23T00:41:06;98795.19;;;14.97;53.46
43147;BME280;28752;48.266;7.402;2023-03-23T00:43:32;98793.94;;;14.92;53.57
43147;BME280;28752;48.266;7.402;2023-03-23T00:46:01;98782.13;;;15.02;53.36
43147;BME280;28752;48.266;7.402;2023-03-23T00:48:28;98780.22;;;14.96;53.72
43147;BME280;28752;48.266;7.402;2023-03-23T00:50:54;98780.41;;;14.94;53.88
43147;BME280;28752;48.266;7.402;2023-03-23T00:53:20;98775.09;;;14.94;54.20
43147;BME280;28752;48.266;7.402;2023-03-23T00:55:46;98774.19;;;14.87;53.93
43147;BME280;28752;48.266;7.402;2023-03-23T00:58:12;98773.81;;;14.90;54.02
43147;BME280;28752;48.266;7.402;2023-03-23T01:00:37;98770.00;;;14.78;54.88
43147;BME280;28752;48.266;7.402;2023-03-23T01:03:03;98763.53;;;14.65;55.19
43147;BME280;28752;48.266;7.402;2023-03-23T01:05:29;98753.31;;;14.69;54.98
43147;BME280;28752;48.266;7.402;2023-03-23T01:07:58;98759.19;;;14.64;55.05
43147;BME280;28752;48.266;7.402;2023-03-23T01:10:24;98754.88;;;14.63;55.31
43147;BME280;28752;48.266;7.402;2023-03-23T01:12:51;98757.34;;;14.50;55.13
43147;BME280;28752;48.266;7.402;2023-03-23T01:15:17;98754.31;;;14.53;55.13
43147;BME280;28752;48.266;7.402;2023-03-23T01:17:43;98753.88;;;14.49;55.48
43147;BME280;28752;48.266;7.402;2023-03-23T01:20:09;98756.19;;;14.37;56.16
43147;BME280;28752;48.266;7.402;2023-03-23T01:22:34;98747.53;;;14.50;56.40
43147;BME280;28752;48.266;7.402;2023-03-23T01:25:00;98742.13;;;14.44;56.73
43147;BME280;28752;48.266;7.402;2023-03-23T01:27:25;98729.31;;;14.17;56.47
43147;BME280;28752;48.266;7.402;2023-03-23T01:29:50;98748.84;;;14.39;56.17
43147;BME280;28752;48.266;7.402;2023-03-23T01:32:16;98745.34;;;14.39;55.98
43147;BME280;28752;48.266;7.402;2023-03-23T01:34:41;98749.53;;;14.48;55.55
43147;BME280;28752;48.266;7.402;2023-03-23T01:37:07;98740.09;;;14.61;55.19
43147;BME280;28752;48.266;7.402;2023-03-23T01:39:32;98728.94;;;14.57;54.56
43147;BME280;28752;48.266;7.402;2023-03-23T01:41:57;98729.75;;;14.72;54.47
43147;BME280;28752;48.266;7.402;2023-03-23T01:46:48;98725.84;;;14.68;55.20
43147;BME280;28752;48.266;7.402;2023-03-23T01:49:14;98714.81;;;14.71;54.87
43147;BME280;28752;48.266;7.402;2023-03-23T01:51:41;98692.25;;;14.74;55.02
43147;BME280;28752;48.266;7.402;2023-03-23T01:54:08;98694.34;;;14.79;55.38
43147;BME280;28752;48.266;7.402;2023-03-23T01:56:39;98720.13;;;14.71;55.79
43147;BME280;28752;48.266;7.402;2023-03-23T01:59:07;98717.56;;;14.63;56.52
43147;BME280;28752;48.266;7.402;2023-03-23T02:01:32;98694.19;;;14.44;56.89
43147;BME280;28752;48.266;7.402;2023-03-23T02:04:03;98701.22;;;14.51;57.05
43147;BME280;28752;48.266;7.402;2023-03-23T02:06:29;98704.22;;;14.42;57.32
43147;BME280;28752;48.266;7.402;2023-03-23T02:08:54;98694.16;;;14.22;58.18
43147;BME280;28752;48.266;7.402;2023-03-23T02:11:21;98698.72;;;14.28;57.84
43147;BME280;28752;48.266;7.402;2023-03-23T02:13:47;98703.44;;;14.48;57.39
43147;BME280;28752;48.266;7.402;2023-03-23T02:18:47;98693.38;;;14.43;57.52
43147;BME280;28752;48.266;7.402;2023-03-23T02:36:13;98696.25;;;14.27;58.92
43147;BME280;28752;48.266;7.402;2023-03-23T02:41:06;98689.38;;;14.32;59.02
43147;BME280;28752;48.266;7.402;2023-03-23T02:43:33;98700.66;;;14.19;59.22
43147;BME280;28752;48.266;7.402;2023-03-23T02:46:01;98689.34;;;14.11;59.51
43147;BME280;28752;48.266;7.402;2023-03-23T02:48:28;98686.53;;;14.19;59.73
43147;BME280;28752;48.266;7.402;2023-03-23T02:50:55;98679.47;;;14.26;59.40
43147;BME280;28752;48.266;7.402;2023-03-23T02:53:22;98672.09;;;14.28;59.48
43147;BME280;28752;48.266;7.402;2023-03-23T02:55:48;98676.53;;;14.21;59.69
43147;BME280;28752;48.266;7.402;2023-03-23T02:58:13;98641.78;;;14.08;59.78
43147;BME280;28752;48.266;7.402;2023-03-23T03:00:39;98671.94;;;14.15;60.28
43147;BME280;28752;48.266;7.402;2023-03-23T03:03:05;98664.53;;;14.10;60.43
43147;BME280;28752;48.266;7.402;2023-03-23T03:05:35;98666.19;;;14.11;60.29
43147;BME280;28752;48.266;7.402;2023-03-23T03:08:15;98657.75;;;14.08;60.35
43147;BME280;28752;48.266;7.402;2023-03-23T03:15:37;98660.09;;;14.17;59.56
43147;BME280;28752;48.266;7.402;2023-03-23T03:20:37;98659.53;;;14.22;59.36
43147;BME280;28752;48.266;7.402;2023-03-23T03:23:05;98655.13;;;14.29;58.92
43147;BME280;28752;48.266;7.402;2023-03-23T03:25:32;98650.50;;;14.38;59.25
43147;BME280;28752;48.266;7.402;2023-03-23T03:27:58;98650.94;;;14.42;58.99
43147;BME280;28752;48.266;7.402;2023-03-23T03:30:25;98653.97;;;14.38;58.89
43147;BME280;28752;48.266;7.402;2023-03-23T03:32:53;98643.09;;;14.33;59.44
43147;BME280;28752;48.266;7.402;2023-03-23T03:35:22;98646.00;;;14.38;59.13
43147;BME280;28752;48.266;7.402;2023-03-23T03:37:48;98654.03;;;14.24;59.71
43147;BME280;28752;48.266;7.402;2023-03-23T03:40:15;98657.19;;;14.12;60.27
43147;BME280;28752;48.266;7.402;2023-03-23T03:42:41;98648.13;;;14.07;60.54
43147;BME280;28752;48.266;7.402;2023-03-23T03:45:07;98650.03;;;14.13;60.51
43147;BME280;28752;48.266;7.402;2023-03-23T03:47:33;98644.88;;;14.11;60.53
43147;BME280;28752;48.266;7.402;2023-03-23T03:49:59;98653.06;;;14.10;60.64
43147;BME280;28752;48.266;7.402;2023-03-23T03:52:24;98639.97;;;13.93;61.24
43147;BME280;28752;48.266;7.402;2023-03-23T03:54:49;98646.84;;;13.88;61.22
43147;BME280;28752;48.266;7.402;2023-03-23T03:57:15;98650.91;;;13.83;61.29
43147;BME280;28752;48.266;7.402;2023-03-23T03:59:42;98652.38;;;13.86;60.89
43147;BME280;28752;48.266;7.402;2023-03-23T04:02:08;98653.41;;;13.85;60.42
43147;BME280;28752;48.266;7.402;2023-03-23T04:04:34;98659.78;;;13.91;60.03
43147;BME280;28752;48.266;7.402;2023-03-23T04:06:59;98662.38;;;13.99;59.22
43147;BME280;28752;48.266;7.402;2023-03-23T04:09:26;98663.09;;;14.08;58.71
43147;BME280;28752;48.266;7.402;2023-03-23T04:11:52;98664.72;;;14.09;58.82
43147;BME280;28752;48.266;7.402;2023-03-23T04:14:17;98667.66;;;14.14;58.94
43147;BME280;28752;48.266;7.402;2023-03-23T04:16:42;98664.63;;;14.17;59.19
43147;BME280;28752;48.266;7.402;2023-03-23T04:19:08;98674.91;;;14.20;59.00
43147;BME280;28752;48.266;7.402;2023-03-23T04:21:34;98652.72;;;13.98;59.17
43147;BME280;28752;48.266;7.402;2023-03-23T04:23:59;98668.59;;;14.06;59.06
43147;BME280;28752;48.266;7.402;2023-03-23T04:26:28;98676.53;;;14.21;58.90
43147;BME280;28752;48.266;7.402;2023-03-23T04:28:57;98674.41;;;14.16;58.04
43147;BME280;28752;48.266;7.402;2023-03-23T04:31:23;98670.78;;;14.39;57.90
43147;BME280;28752;48.266;7.402;2023-03-23T04:33:49;98669.25;;;14.51;57.48
43147;BME280;28752;48.266;7.402;2023-03-23T04:36:17;98662.75;;;14.54;57.38
43147;BME280;28752;48.266;7.402;2023-03-23T04:38:42;98674.13;;;14.63;57.28
43147;BME280;28752;48.266;7.402;2023-03-23T04:41:07;98679.91;;;14.51;57.72
43147;BME280;28752;48.266;7.402;2023-03-23T04:43:33;98678.00;;;14.45;58.42
43147;BME280;28752;48.266;7.402;2023-03-23T04:46:06;98689.69;;;14.44;57.55
43147;BME280;28752;48.266;7.402;2023-03-23T04:48:33;98697.19;;;14.55;57.35
43147;BME280;28752;48.266;7.402;2023-03-23T04:51:00;98695.06;;;14.66;57.02
43147;BME280;28752;48.266;7.402;2023-03-23T04:53:28;98689.53;;;14.67;56.64
43147;BME280;28752;48.266;7.402;2023-03-23T04:55:53;98695.31;;;14.71;56.95
43147;BME280;28752;48.266;7.402;2023-03-23T04:58:18;98680.09;;;14.65;56.88
43147;BME280;28752;48.266;7.402;2023-03-23T05:00:44;98690.75;;;14.65;57.07
43147;BME280;28752;48.266;7.402;2023-03-23T05:03:14;98689.94;;;14.64;57.52
43147;BME280;28752;48.266;7.402;2023-03-23T05:05:41;98687.81;;;14.60;57.24
43147;BME280;28752;48.266;7.402;2023-03-23T05:08:06;98686.81;;;14.61;57.63
43147;BME280;28752;48.266;7.402;2023-03-23T05:10:32;98690.25;;;14.76;57.08
43147;BME280;28752;48.266;7.402;2023-03-23T05:12:57;98690.16;;;14.69;57.17
43147;BME280;28752;48.266;7.402;2023-03-23T05:15:22;98692.59;;;14.64;57.76
43147;BME280;28752;48.266;7.402;2023-03-23T05:17:47;98687.25;;;14.64;57.47
43147;BME280;28752;48.266;7.402;2023-03-23T05:20:16;98686.38;;;14.42;58.39
43147;BME280;28752;48.266;7.402;2023-03-23T05:22:45;98692.66;;;14.56;57.96
43147;BME280;28752;48.266;7.402;2023-03-23T05:25:12;98706.34;;;14.31;58.75
43147;BME280;28752;48.266;7.402;2023-03-23T05:27:38;98703.25;;;14.49;58.59
43147;BME280;28752;48.266;7.402;2023-03-23T05:30:07;98708.44;;;14.72;58.02
43147;BME280;28752;48.266;7.402;2023-03-23T05:32:32;98711.97;;;14.58;58.52
43147;BME280;28752;48.266;7.402;2023-03-23T05:34:58;98713.63;;;14.59;58.70
43147;BME280;28752;48.266;7.402;2023-03-23T05:37:24;98716.16;;;14.46;59.49
43147;BME280;28752;48.266;7.402;2023-03-23T05:39:51;98732.38;;;14.51;58.75
43147;BME280;28752;48.266;7.402;2023-03-23T05:42:19;98730.16;;;14.54;58.32
43147;BME280;28752;48.266;7.402;2023-03-23T05:44:44;98738.50;;;14.51;57.98
43147;BME280;28752;48.266;7.402;2023-03-23T05:47:10;98751.47;;;14.54;58.73
43147;BME280;28752;48.266;7.402;2023-03-23T05:49:35;98739.56;;;14.50;59.02
43147;BME280;28752;48.266;7.402;2023-03-23T05:52:01;98749.53;;;14.48;59.34
43147;BME280;28752;48.266;7.402;2023-03-23T05:54:26;98738.84;;;14.42;59.26
43147;BME280;28752;48.266;7.402;2023-03-23T05:56:52;98728.13;;;14.35;58.76
43147;BME280;28752;48.266;7.402;2023-03-23T05:59:17;98727.63;;;14.46;57.99
43147;BME280;28752;48.266;7.402;2023-03-23T06:01:42;98736.03;;;14.65;57.29
43147;BME280;28752;48.266;7.402;2023-03-23T06:04:08;98736.88;;;14.65;57.62
43147;BME280;28752;48.266;7.402;2023-03-23T06:06:34;98731.66;;;14.79;58.53
43147;BME280;28752;48.266;7.402;2023-03-23T06:09:00;98731.16;;;14.90;57.49
43147;BME280;28752;48.266;7.402;2023-03-23T06:11:26;98737.50;;;14.89;57.40
43147;BME280;28752;48.266;7.402;2023-03-23T06:13:51;98733.44;;;14.93;57.01
43147;BME280;28752;48.266;7.402;2023-03-23T06:16:17;98743.59;;;14.83;57.98
43147;BME280;28752;48.266;7.402;2023-03-23T06:18:42;98733.50;;;15.00;57.79
43147;BME280;28752;48.266;7.402;2023-03-23T06:21:08;98722.59;;;14.95;57.97
43147;BME280;28752;48.266;7.402;2023-03-23T06:23:34;98736.34;;;14.98;57.67
43147;BME280;28752;48.266;7.402;2023-03-23T06:26:00;98751.13;;;15.22;57.56
43147;BME280;28752;48.266;7.402;2023-03-23T06:28:27;98770.56;;;14.95;58.16
43147;BME280;28752;48.266;7.402;2023-03-23T06:30:52;98773.66;;;14.98;58.10
43147;BME280;28752;48.266;7.402;2023-03-23T06:33:18;98784.59;;;15.03;58.35
43147;BME280;28752;48.266;7.402;2023-03-23T06:35:43;98786.00;;;14.99;59.14
43147;BME280;28752;48.266;7.402;2023-03-23T06:38:09;98786.69;;;15.08;59.04
43147;BME280;28752;48.266;7.402;2023-03-23T06:40:34;98785.22;;;15.05;59.61
43147;BME280;28752;48.266;7.402;2023-03-23T06:43:01;98801.56;;;15.17;59.65
43147;BME280;28752;48.266;7.402;2023-03-23T06:45:26;98802.88;;;15.28;58.52
43147;BME280;28752;48.266;7.402;2023-03-23T06:47:52;98804.91;;;15.26;59.42
43147;BME280;28752;48.266;7.402;2023-03-23T06:50:17;98816.34;;;15.20;60.38
43147;BME280;28752;48.266;7.402;2023-03-23T06:52:49;98827.25;;;15.25;59.94
43147;BME280;28752;48.266;7.402;2023-03-23T06:55:15;98819.25;;;15.25;60.33
43147;BME280;28752;48.266;7.402;2023-03-23T06:57:40;98817.78;;;15.44;60.21
43147;BME280;28752;48.266;7.402;2023-03-23T07:00:07;98811.66;;;15.72;58.57
43147;BME280;28752;48.266;7.402;2023-03-23T07:02:34;98822.25;;;15.65;58.81
43147;BME280;28752;48.266;7.402;2023-03-23T07:05:00;98811.81;;;15.92;57.13
43147;BME280;28752;48.266;7.402;2023-03-23T07:07:26;98813.41;;;15.86;58.65
43147;BME280;28752;48.266;7.402;2023-03-23T07:09:51;98801.69;;;15.80;59.47
43147;BME280;28752;48.266;7.402;2023-03-23T07:12:16;98808.66;;;15.81;60.09
43147;BME280;28752;48.266;7.402;2023-03-23T07:14:41;98810.91;;;15.78;59.77
43147;BME280;28752;48.266;7.402;2023-03-23T07:17:07;98822.88;;;15.89;59.42
43147;BME280;28752;48.266;7.402;2023-03-23T07:19:32;98822.22;;;16.15;58.84
43147;BME280;28752;48.266;7.402;2023-03-23T07:21:58;98824.22;;;16.06;58.58
43147;BME280;28752;48.266;7.402;2023-03-23T07:24:23;98812.94;;;16.11;59.04
43147;BME280;28752;48.266;7.402;2023-03-23T07:26:48;98823.75;;;15.96;59.61
43147;BME280;28752;48.266;7.402;2023-03-23T07:29:13;98822.28;;;15.93;59.57
43147;BME280;28752;48.266;7.402;2023-03-23T07:31:39;98835.44;;;15.95;60.26
43147;BME280;28752;48.266;7.402;2023-03-23T07:34:04;98834.44;;;15.96;60.54
43147;BME280;28752;48.266;7.402;2023-03-23T07:36:30;98831.06;;;16.15;60.41
43147;BME280;28752;48.266;7.402;2023-03-23T07:38:55;98838.44;;;16.13;60.06
43147;BME280;28752;48.266;7.402;2023-03-23T07:41:21;98837.25;;;16.23;59.56
43147;BME280;28752;48.266;7.402;2023-03-23T07:43:47;98835.75;;;16.13;60.48
43147;BME280;28752;48.266;7.402;2023-03-23T07:46:12;98829.88;;;16.25;60.99
43147;BME280;28752;48.266;7.402;2023-03-23T07:48:38;98828.22;;;16.24;59.87
43147;BME280;28752;48.266;7.402;2023-03-23T07:51:03;98824.16;;;16.34;60.11
43147;BME280;28752;48.266;7.402;2023-03-23T07:53:29;98827.66;;;16.00;60.16
43147;BME280;28752;48.266;7.402;2023-03-23T07:55:54;98840.13;;;16.21;59.82
43147;BME280;28752;48.266;7.402;2023-03-23T07:58:19;98834.97;;;16.20;60.39
43147;BME280;28752;48.266;7.402;2023-03-23T08:00:48;98841.38;;;16.25;59.94
43147;BME280;28752;48.266;7.402;2023-03-23T08:03:14;98854.84;;;16.10;61.82
43147;BME280;28752;48.266;7.402;2023-03-23T08:05:40;98862.66;;;16.12;62.22
43147;BME280;28752;48.266;7.402;2023-03-23T08:08:07;98866.88;;;16.28;60.17
43147;BME280;28752;48.266;7.402;2023-03-23T08:10:33;98858.78;;;16.14;61.34
43147;BME280;28752;48.266;7.402;2023-03-23T08:12:58;98855.44;;;16.06;61.25
43147;BME280;28752;48.266;7.402;2023-03-23T08:15:24;98864.47;;;16.05;60.75
43147;BME280;28752;48.266;7.402;2023-03-23T08:17:51;98858.06;;;15.99;59.94
43147;BME280;28752;48.266;7.402;2023-03-23T08:20:17;98861.00;;;16.11;59.61
43147;BME280;28752;48.266;7.402;2023-03-23T08:22:44;98854.56;;;16.33;59.50
43147;BME280;28752;48.266;7.402;2023-03-23T08:25:11;98868.78;;;16.34;59.15
43147;BME280;28752;48.266;7.402;2023-03-23T08:27:36;98865.31;;;16.40;59.11
43147;BME280;28752;48.266;7.402;2023-03-23T08:30:04;98880.16;;;16.49;60.64
43147;BME280;28752;48.266;7.402;2023-03-23T08:32:30;98876.56;;;16.70;59.79
43147;BME280;28752;48.266;7.402;2023-03-23T08:34:55;98875.72;;;17.32;56.34
43147;BME280;28752;48.266;7.402;2023-03-23T08:37:21;98876.34;;;17.20;56.01
43147;BME280;28752;48.266;7.402;2023-03-23T08:39:46;98870.81;;;17.42;54.55
43147;BME280;28752;48.266;7.402;2023-03-23T08:42:12;98871.66;;;17.76;54.54
43147;BME280;28752;48.266;7.402;2023-03-23T08:44:37;98885.69;;;17.98;53.39
43147;BME280;28752;48.266;7.402;2023-03-23T08:47:02;98885.06;;;17.96;52.95
43147;BME280;28752;48.266;7.402;2023-03-23T08:49:29;98886.09;;;18.08;53.89
43147;BME280;28752;48.266;7.402;2023-03-23T08:51:57;98886.91;;;17.96;54.10
43147;BME280;28752;48.266;7.402;2023-03-23T08:54:23;98900.09;;;18.10;54.76
43147;BME280;28752;48.266;7.402;2023-03-23T08:56:48;98902.75;;;18.17;53.23
43147;BME280;28752;48.266;7.402;2023-03-23T08:59:14;98890.84;;;18.13;53.99
43147;BME280;28752;48.266;7.402;2023-03-23T09:01:39;98893.94;;;18.10;54.16
43147;BME280;28752;48.266;7.402;2023-03-23T09:04:05;98892.88;;;18.24;53.71
43147;BME280;28752;48.266;7.402;2023-03-23T09:06:30;98880.06;;;18.26;53.47
43147;BME280;28752;48.266;7.402;2023-03-23T09:08:55;98890.78;;;18.46;53.87
43147;BME280;28752;48.266;7.402;2023-03-23T09:11:21;98875.84;;;18.64;53.12
43147;BME280;28752;48.266;7.402;2023-03-23T09:13:46;98879.38;;;18.58;50.42
43147;BME280;28752;48.266;7.402;2023-03-23T09:16:11;98873.31;;;18.82;50.86
43147;BME280;28752;48.266;7.402;2023-03-23T09:18:37;98884.66;;;18.78;50.40
43147;BME280;28752;48.266;7.402;2023-03-23T09:21:03;98884.53;;;18.66;51.21
43147;BME280;28752;48.266;7.402;2023-03-23T09:23:28;98888.59;;;18.82;52.99
43147;BME280;28752;48.266;7.402;2023-03-23T09:25:54;98881.97;;;18.91;53.40
43147;BME280;28752;48.266;7.402;2023-03-23T09:28:19;98887.09;;;18.99;52.96
43147;BME280;28752;48.266;7.402;2023-03-23T09:30:45;98890.84;;;18.92;52.26
43147;BME280;28752;48.266;7.402;2023-03-23T09:33:12;98891.47;;;18.80;51.33
43147;BME280;28752;48.266;7.402;2023-03-23T09:35:37;98890.56;;;18.48;51.32
43147;BME280;28752;48.266;7.402;2023-03-23T09:38:04;98893.63;;;18.52;50.64
43147;BME280;28752;48.266;7.402;2023-03-23T09:40:39;98900.69;;;18.39;50.63
43147;BME280;28752;48.266;7.402;2023-03-23T09:48:32;98889.56;;;18.29;52.31
43147;BME280;28752;48.266;7.402;2023-03-23T09:51:04;98894.09;;;18.42;51.41
43147;BME280;28752;48.266;7.402;2023-03-23T09:53:35;98888.88;;;18.54;51.84
43147;BME280;28752;48.266;7.402;2023-03-23T09:56:03;98885.19;;;18.48;52.13
43147;BME280;28752;48.266;7.402;2023-03-23T09:58:53;98879.94;;;18.73;51.78
43147;BME280;28752;48.266;7.402;2023-03-23T10:01:21;98885.78;;;18.57;52.32
43147;BME280;28752;48.266;7.402;2023-03-23T10:03:48;98885.63;;;18.45;52.16
43147;BME280;28752;48.266;7.402;2023-03-23T10:06:17;98888.31;;;18.45;52.93
43147;BME280;28752;48.266;7.402;2023-03-23T10:08:45;98884.66;;;18.78;51.57
43147;BME280;28752;48.266;7.402;2023-03-23T10:16:19;98901.47;;;18.53;50.47
43147;BME280;28752;48.266;7.402;2023-03-23T10:18:47;98899.00;;;18.52;50.86
43147;BME280;28752;48.266;7.402;2023-03-23T10:21:19;98897.38;;;18.31;52.22
43147;BME280;28752;48.266;7.402;2023-03-23T10:28:43;98909.09;;;18.63;51.88
43147;BME280;28752;48.266;7.402;2023-03-23T10:31:28;98904.72;;;18.75;51.16
43147;BME280;28752;48.266;7.402;2023-03-23T10:33:56;98912.72;;;18.82;51.25
43147;BME280;28752;48.266;7.402;2023-03-23T10:36:24;98900.75;;;18.78;50.79
43147;BME280;28752;48.266;7.402;2023-03-23T10:39:09;98910.47;;;18.86;50.74
43147;BME280;28752;48.266;7.402;2023-03-23T10:41:36;98902.28;;;18.60;51.09
43147;BME280;28752;48.266;7.402;2023-03-23T10:44:07;98921.84;;;18.68;52.85
43147;BME280;28752;48.266;7.402;2023-03-23T10:49:00;98923.72;;;18.60;53.59
43147;BME280;28752;48.266;7.402;2023-03-23T10:51:29;98930.38;;;18.38;50.72
43147;BME280;28752;48.266;7.402;2023-03-23T10:53:57;98916.13;;;18.44;51.60
43147;BME280;28752;48.266;7.402;2023-03-23T10:56:24;98923.78;;;18.34;51.01
43147;BME280;28752;48.266;7.402;2023-03-23T10:58:50;98919.28;;;18.07;50.72
43147;BME280;28752;48.266;7.402;2023-03-23T11:01:18;98923.19;;;17.91;52.60
43147;BME280;28752;48.266;7.402;2023-03-23T11:03:47;98928.28;;;17.73;52.84
43147;BME280;28752;48.266;7.402;2023-03-23T11:06:19;98927.50;;;17.92;52.41
43147;BME280;28752;48.266;7.402;2023-03-23T11:08:51;98927.69;;;17.84;51.78
43147;BME280;28752;48.266;7.402;2023-03-23T11:11:59;98918.00;;;17.83;52.86
43147;BME280;28752;48.266;7.402;2023-03-23T11:16:42;98919.28;;;18.01;52.08
43147;BME280;28752;48.266;7.402;2023-03-23T11:19:13;98922.75;;;17.94;52.82
43147;BME280;28752;48.266;7.402;2023-03-23T11:21:39;98906.09;;;18.06;52.73
43147;BME280;28752;48.266;7.402;2023-03-23T11:24:04;98923.81;;;18.07;51.72
43147;BME280;28752;48.266;7.402;2023-03-23T11:26:31;98932.25;;;17.97;52.59
43147;BME280;28752;48.266;7.402;2023-03-23T11:31:42;98910.16;;;17.88;52.26
43147;BME280;28752;48.266;7.402;2023-03-23T11:36:49;98908.91;;;18.44;51.11
43147;BME280;28752;48.266;7.402;2023-03-23T11:39:20;98897.56;;;18.56;51.94
43147;BME280;28752;48.266;7.402;2023-03-23T11:41:46;98894.16;;;18.87;50.73
43147;BME280;28752;48.266;7.402;2023-03-23T11:44:11;98895.38;;;18.91;50.72
43147;BME280;28752;48.266;7.402;2023-03-23T11:49:12;98897.41;;;18.96;51.04
43147;BME280;28752;48.266;7.402;2023-03-23T11:51:45;98888.66;;;19.14;49.09
43147;BME280;28752;48.266;7.402;2023-03-23T11:54:16;98882.38;;;19.33;49.40
43147;BME280;28752;48.266;7.402;2023-03-23T11:56:44;98889.91;;;19.75;49.44
43147;BME280;28752;48.266;7.402;2023-03-23T11:59:13;98883.66;;;19.88;48.00
43147;BME280;28752;48.266;7.402;2023-03-23T12:01:47;98878.56;;;20.23;48.11
43147;BME280;28752;48.266;7.402;2023-03-23T12:17:23;98868.72;;;21.22;43.90
43147;BME280;28752;48.266;7.402;2023-03-23T12:23:01;98866.72;;;20.87;45.20
43147;BME280;28752;48.266;7.402;2023-03-23T12:30:49;98853.72;;;20.84;44.88
43147;BME280;28752;48.266;7.402;2023-03-23T12:48:41;98832.41;;;20.08;43.95
43147;BME280;28752;48.266;7.402;2023-03-23T12:54:03;98827.72;;;19.78;43.70
43147;BME280;28752;48.266;7.402;2023-03-23T13:01:43;98816.03;;;19.66;43.48
43147;BME280;28752;48.266;7.402;2023-03-23T13:04:15;98823.59;;;19.50;43.59
43147;BME280;28752;48.266;7.402;2023-03-23T13:06:46;98812.06;;;19.43;43.71
43147;BME280;28752;48.266;7.402;2023-03-23T13:11:37;98811.88;;;19.70;43.59
43147;BME280;28752;48.266;7.402;2023-03-23T13:24:55;98811.28;;;20.12;42.80
43147;BME280;28752;48.266;7.402;2023-03-23T13:27:24;98802.09;;;20.01;43.23
43147;BME280;28752;48.266;7.402;2023-03-23T13:29:53;98800.31;;;20.13;43.07
43147;BME280;28752;48.266;7.402;2023-03-23T13:32:19;98801.94;;;20.14;42.91
43147;BME280;28752;48.266;7.402;2023-03-23T13:34:45;98789.78;;;20.30;43.76
43147;BME280;28752;48.266;7.402;2023-03-23T13:37:22;98785.81;;;20.51;42.46
43147;BME280;28752;48.266;7.402;2023-03-23T13:39:50;98783.38;;;20.50;41.97
43147;BME280;28752;48.266;7.402;2023-03-23T13:42:19;98791.66;;;20.48;42.62
43147;BME280;28752;48.266;7.402;2023-03-23T13:49:52;98768.66;;;20.34;42.15
43147;BME280;28752;48.266;7.402;2023-03-23T13:52:22;98770.44;;;20.40;43.25
43147;BME280;28752;48.266;7.402;2023-03-23T13:54:50;98766.53;;;20.54;43.16
43147;BME280;28752;48.266;7.402;2023-03-23T13:57:32;98775.44;;;20.55;42.70
43147;BME280;28752;48.266;7.402;2023-03-23T13:59:58;98761.00;;;20.49;42.46
43147;BME280;28752;48.266;7.402;2023-03-23T14:02:36;98758.66;;;20.41;42.98
43147;BME280;28752;48.266;7.402;2023-03-23T14:07:51;98754.59;;;20.50;42.97
43147;BME280;28752;48.266;7.402;2023-03-23T14:10:17;98752.75;;;20.32;42.72
43147;BME280;28752;48.266;7.402;2023-03-23T14:12:43;98748.16;;;20.21;43.10
43147;BME280;28752;48.266;7.402;2023-03-23T14:15:13;98734.06;;;20.56;42.95
43147;BME280;28752;48.266;7.402;2023-03-23T14:17:43;98729.13;;;20.34;42.58
43147;BME280;28752;48.266;7.402;2023-03-23T14:20:09;98736.03;;;20.30;42.59
43147;BME280;28752;48.266;7.402;2023-03-23T14:22:42;98732.91;;;20.33;42.97
43147;BME280;28752;48.266;7.402;2023-03-23T14:27:34;98725.88;;;20.32;42.37
43147;BME280;28752;48.266;7.402;2023-03-23T14:30:00;98725.41;;;20.35;42.35
43147;BME280;28752;48.266;7.402;2023-03-23T14:32:27;98727.97;;;20.30;42.20
43147;BME280;28752;48.266;7.402;2023-03-23T14:34:52;98724.53;;;20.23;43.22
43147;BME280;28752;48.266;7.402;2023-03-23T14:37:18;98713.50;;;19.94;42.88
43147;BME280;28752;48.266;7.402;2023-03-23T14:39:46;98724.63;;;19.98;42.69
43147;BME280;28752;48.266;7.402;2023-03-23T14:42:14;98717.91;;;19.88;43.44
43147;BME280;28752;48.266;7.402;2023-03-23T14:44:42;98717.09;;;19.88;42.79
43147;BME280;28752;48.266;7.402;2023-03-23T14:47:50;98718.00;;;19.82;42.64
43147;BME280;28752;48.266;7.402;2023-03-23T14:49:57;98715.06;;;20.02;42.41
43147;BME280;28752;48.266;7.402;2023-03-23T14:52:25;98706.63;;;20.17;42.30
43147;BME280;28752;48.266;7.402;2023-03-23T14:54:50;98716.44;;;20.41;42.37
43147;BME280;28752;48.266;7.402;2023-03-23T14:57:17;98714.13;;;20.15;42.70
43147;BME280;28752;48.266;7.402;2023-03-23T14:59:44;98708.44;;;19.86;42.85
43147;BME280;28752;48.266;7.402;2023-03-23T15:02:11;98712.25;;;19.97;42.85
43147;BME280;28752;48.266;7.402;2023-03-23T15:04:38;98706.84;;;19.78;43.47
43147;BME280;28752;48.266;7.402;2023-03-23T15:07:03;98712.75;;;19.87;43.09
43147;BME280;28752;48.266;7.402;2023-03-23T15:09:29;98708.78;;;19.71;42.80